sensor_id;sensor_type;location;lat;lon;timestamp;P1;durP1;ratioP1;P2;durP2;ratioP2
75542;SDS011;64129;53.508;10.476;2022-12-11T00:03:15;11.43;;;5.90;;
75542;SDS011;64129;53.508;10.476;2022-12-11T00:05:42;10.07;;;6.05;;
75542;SDS011;64129;53.508;10.476;2022-12-11T00:08:10;11.60;;;6.22;;
75542;SDS011;64129;53.508;10.476;2022-12-11T00:10:37;9.85;;;5.55;;
75542;SDS011;64129;53.508;10.476;2022-12-11T00:13:04;10.48;;;5.57;;
75542;SDS011;64129;53.508;10.476;2022-12-11T00:15:30;12.40;;;6.25;;
75542;SDS011;64129;53.508;10.476;2022-12-11T00:17:57;11.40;;;5.88;;
75542;SDS011;64129;53.508;10.476;2022-12-11T00:20:23;12.02;;;6.68;;
75542;SDS011;64129;53.508;10.476;2022-12-11T00:22:50;12.02;;;6.15;;
75542;SDS011;64129;53.508;10.476;2022-12-11T00:25:17;10.93;;;6.55;;
75542;SDS011;64129;53.508;10.476;2022-12-11T00:27:44;11.82;;;5.53;;
75542;SDS011;64129;53.508;10.476;2022-12-11T00:30:11;11.13;;;5.80;;
75542;SDS011;64129;53.508;10.476;2022-12-11T00:32:39;12.32;;;5.38;;
75542;SDS011;64129;53.508;10.476;2022-12-11T00:35:05;12.00;;;6.60;;
75542;SDS011;64129;53.508;10.476;2022-12-11T00:37:32;11.73;;;5.57;;
75542;SDS011;64129;53.508;10.476;2022-12-11T00:39:58;13.25;;;6.28;;
75542;SDS011;64129;53.508;10.476;2022-12-11T00:42:25;14.95;;;6.68;;
75542;SDS011;64129;53.508;10.476;2022-12-11T00:44:51;12.73;;;5.95;;
75542;SDS011;64129;53.508;10.476;2022-12-11T00:47:18;12.32;;;6.25;;
75542;SDS011;64129;53.508;10.476;2022-12-11T00:49:45;11.73;;;6.15;;
75542;SDS011;64129;53.508;10.476;2022-12-11T00:52:13;11.80;;;6.80;;
75542;SDS011;64129;53.508;10.476;2022-12-11T00:54:39;10.98;;;6.45;;
75542;SDS011;64129;53.508;10.476;2022-12-11T00:57:06;16.33;;;7.82;;
75542;SDS011;64129;53.508;10.476;2022-12-11T00:59:32;10.13;;;5.63;;
75542;SDS011;64129;53.508;10.476;2022-12-11T01:01:59;11.57;;;6.30;;
75542;SDS011;64129;53.508;10.476;2022-12-11T01:04:25;12.10;;;6.40;;
75542;SDS011;64129;53.508;10.476;2022-12-11T01:06:51;11.45;;;6.15;;
75542;SDS011;64129;53.508;10.476;2022-12-11T01:09:18;12.82;;;5.60;;
75542;SDS011;64129;53.508;10.476;2022-12-11T01:12:03;9.95;;;5.35;;
75542;SDS011;64129;53.508;10.476;2022-12-11T01:14:29;13.23;;;5.25;;
75542;SDS011;64129;53.508;10.476;2022-12-11T01:16:56;10.48;;;5.93;;
75542;SDS011;64129;53.508;10.476;2022-12-11T01:19:22;11.25;;;6.30;;
75542;SDS011;64129;53.508;10.476;2022-12-11T01:21:49;13.20;;;6.43;;
75542;SDS011;64129;53.508;10.476;2022-12-11T01:24:15;10.68;;;5.55;;
75542;SDS011;64129;53.508;10.476;2022-12-11T01:26:42;10.13;;;5.95;;
75542;SDS011;64129;53.508;10.476;2022-12-11T01:29:08;12.32;;;7.43;;
75542;SDS011;64129;53.508;10.476;2022-12-11T01:31:35;12.60;;;6.40;;
75542;SDS011;64129;53.508;10.476;2022-12-11T01:34:02;12.65;;;5.95;;
75542;SDS011;64129;53.508;10.476;2022-12-11T01:36:29;11.10;;;5.78;;
75542;SDS011;64129;53.508;10.476;2022-12-11T01:38:55;10.40;;;6.10;;
75542;SDS011;64129;53.508;10.476;2022-12-11T01:41:22;10.43;;;6.05;;
75542;SDS011;64129;53.508;10.476;2022-12-11T01:43:59;12.18;;;6.65;;
75542;SDS011;64129;53.508;10.476;2022-12-11T01:46:26;9.63;;;5.32;;
75542;SDS011;64129;53.508;10.476;2022-12-11T01:48:53;11.23;;;6.30;;
75542;SDS011;64129;53.508;10.476;2022-12-11T01:51:21;10.88;;;5.72;;
75542;SDS011;64129;53.508;10.476;2022-12-11T01:53:50;12.23;;;6.57;;
75542;SDS011;64129;53.508;10.476;2022-12-11T01:56:22;10.25;;;5.65;;
75542;SDS011;64129;53.508;10.476;2022-12-11T01:58:51;9.93;;;5.95;;
75542;SDS011;64129;53.508;10.476;2022-12-11T02:01:31;11.00;;;6.57;;
75542;SDS011;64129;53.508;10.476;2022-12-11T02:04:06;10.35;;;6.57;;
75542;SDS011;64129;53.508;10.476;2022-12-11T02:09:06;12.25;;;6.68;;
75542;SDS011;64129;53.508;10.476;2022-12-11T02:11:42;10.00;;;5.90;;
75542;SDS011;64129;53.508;10.476;2022-12-11T02:17:11;9.07;;;6.25;;
75542;SDS011;64129;53.508;10.476;2022-12-11T02:22:33;11.40;;;6.10;;
75542;SDS011;64129;53.508;10.476;2022-12-11T02:25:08;13.30;;;5.88;;
75542;SDS011;64129;53.508;10.476;2022-12-11T02:27:47;12.93;;;6.13;;
75542;SDS011;64129;53.508;10.476;2022-12-11T02:30:21;12.43;;;6.57;;
75542;SDS011;64129;53.508;10.476;2022-12-11T02:32:53;10.15;;;6.38;;
75542;SDS011;64129;53.508;10.476;2022-12-11T02:35:23;11.52;;;6.05;;
75542;SDS011;64129;53.508;10.476;2022-12-11T02:37:55;9.05;;;5.43;;
75542;SDS011;64129;53.508;10.476;2022-12-11T02:40:25;12.93;;;6.10;;
75542;SDS011;64129;53.508;10.476;2022-12-11T02:42:55;11.90;;;6.55;;
75542;SDS011;64129;53.508;10.476;2022-12-11T02:45:25;9.55;;;5.57;;
75542;SDS011;64129;53.508;10.476;2022-12-11T02:47:53;11.23;;;6.75;;
75542;SDS011;64129;53.508;10.476;2022-12-11T02:50:22;13.27;;;7.40;;
75542;SDS011;64129;53.508;10.476;2022-12-11T02:52:52;9.40;;;6.13;;
75542;SDS011;64129;53.508;10.476;2022-12-11T02:55:21;10.85;;;6.43;;
75542;SDS011;64129;53.508;10.476;2022-12-11T02:57:52;10.40;;;6.22;;
75542;SDS011;64129;53.508;10.476;2022-12-11T03:00:25;11.90;;;6.97;;
75542;SDS011;64129;53.508;10.476;2022-12-11T03:02:51;12.40;;;6.40;;
75542;SDS011;64129;53.508;10.476;2022-12-11T03:05:18;10.93;;;6.53;;
75542;SDS011;64129;53.508;10.476;2022-12-11T03:07:44;10.68;;;6.28;;
75542;SDS011;64129;53.508;10.476;2022-12-11T03:10:13;10.32;;;5.68;;
75542;SDS011;64129;53.508;10.476;2022-12-11T03:12:44;10.15;;;6.07;;
75542;SDS011;64129;53.508;10.476;2022-12-11T03:15:18;10.68;;;6.05;;
75542;SDS011;64129;53.508;10.476;2022-12-11T03:17:54;12.88;;;6.50;;
75542;SDS011;64129;53.508;10.476;2022-12-11T03:20:42;13.00;;;6.65;;
75542;SDS011;64129;53.508;10.476;2022-12-11T03:26:02;10.95;;;5.80;;
75542;SDS011;64129;53.508;10.476;2022-12-11T03:32:39;12.80;;;6.18;;
75542;SDS011;64129;53.508;10.476;2022-12-11T03:38:04;11.43;;;5.93;;
75542;SDS011;64129;53.508;10.476;2022-12-11T03:40:33;11.93;;;6.07;;
75542;SDS011;64129;53.508;10.476;2022-12-11T03:43:03;11.23;;;6.35;;
75542;SDS011;64129;53.508;10.476;2022-12-11T03:45:31;10.45;;;6.30;;
75542;SDS011;64129;53.508;10.476;2022-12-11T03:47:59;10.77;;;6.10;;
75542;SDS011;64129;53.508;10.476;2022-12-11T03:50:28;9.30;;;6.07;;
75542;SDS011;64129;53.508;10.476;2022-12-11T03:52:57;10.05;;;6.13;;
75542;SDS011;64129;53.508;10.476;2022-12-11T03:55:26;12.13;;;6.35;;
75542;SDS011;64129;53.508;10.476;2022-12-11T03:57:54;11.00;;;6.45;;
75542;SDS011;64129;53.508;10.476;2022-12-11T04:00:21;11.85;;;6.50;;
75542;SDS011;64129;53.508;10.476;2022-12-11T04:02:48;11.05;;;6.55;;
75542;SDS011;64129;53.508;10.476;2022-12-11T04:05:39;13.52;;;6.70;;
75542;SDS011;64129;53.508;10.476;2022-12-11T04:08:13;11.98;;;6.07;;
75542;SDS011;64129;53.508;10.476;2022-12-11T04:10:40;10.65;;;5.82;;
75542;SDS011;64129;53.508;10.476;2022-12-11T04:13:08;13.45;;;6.80;;
75542;SDS011;64129;53.508;10.476;2022-12-11T04:15:35;12.65;;;7.22;;
75542;SDS011;64129;53.508;10.476;2022-12-11T04:18:02;12.68;;;6.93;;
75542;SDS011;64129;53.508;10.476;2022-12-11T04:20:47;11.98;;;6.65;;
75542;SDS011;64129;53.508;10.476;2022-12-11T04:23:33;10.43;;;6.28;;
75542;SDS011;64129;53.508;10.476;2022-12-11T04:26:18;10.23;;;6.13;;
75542;SDS011;64129;53.508;10.476;2022-12-11T04:28:46;11.60;;;6.50;;
75542;SDS011;64129;53.508;10.476;2022-12-11T04:31:15;11.60;;;6.72;;
75542;SDS011;64129;53.508;10.476;2022-12-11T04:33:44;12.20;;;6.72;;
75542;SDS011;64129;53.508;10.476;2022-12-11T04:36:11;13.27;;;6.80;;
75542;SDS011;64129;53.508;10.476;2022-12-11T04:38:38;12.52;;;6.90;;
75542;SDS011;64129;53.508;10.476;2022-12-11T04:41:05;10.00;;;6.05;;
75542;SDS011;64129;53.508;10.476;2022-12-11T04:43:36;13.35;;;6.20;;
75542;SDS011;64129;53.508;10.476;2022-12-11T04:46:04;11.15;;;6.43;;
75542;SDS011;64129;53.508;10.476;2022-12-11T04:48:36;11.65;;;6.95;;
75542;SDS011;64129;53.508;10.476;2022-12-11T04:51:03;13.48;;;6.90;;
75542;SDS011;64129;53.508;10.476;2022-12-11T04:53:30;14.50;;;7.68;;
75542;SDS011;64129;53.508;10.476;2022-12-11T04:55:57;15.10;;;7.60;;
75542;SDS011;64129;53.508;10.476;2022-12-11T04:58:25;10.20;;;6.20;;
75542;SDS011;64129;53.508;10.476;2022-12-11T05:00:53;12.80;;;6.22;;
75542;SDS011;64129;53.508;10.476;2022-12-11T05:03:19;13.00;;;5.93;;
75542;SDS011;64129;53.508;10.476;2022-12-11T05:05:50;12.82;;;6.43;;
75542;SDS011;64129;53.508;10.476;2022-12-11T05:08:17;12.07;;;6.57;;
75542;SDS011;64129;53.508;10.476;2022-12-11T05:10:53;9.82;;;6.32;;
75542;SDS011;64129;53.508;10.476;2022-12-11T05:13:21;12.68;;;5.97;;
75542;SDS011;64129;53.508;10.476;2022-12-11T05:15:48;13.13;;;6.80;;
75542;SDS011;64129;53.508;10.476;2022-12-11T05:18:15;14.30;;;6.63;;
75542;SDS011;64129;53.508;10.476;2022-12-11T05:20:41;11.85;;;6.00;;
75542;SDS011;64129;53.508;10.476;2022-12-11T05:23:08;15.27;;;6.82;;
75542;SDS011;64129;53.508;10.476;2022-12-11T05:25:34;12.93;;;6.50;;
75542;SDS011;64129;53.508;10.476;2022-12-11T05:28:01;12.27;;;6.85;;
75542;SDS011;64129;53.508;10.476;2022-12-11T05:30:27;12.85;;;6.90;;
75542;SDS011;64129;53.508;10.476;2022-12-11T05:32:54;12.60;;;6.50;;
75542;SDS011;64129;53.508;10.476;2022-12-11T05:35:20;14.57;;;6.93;;
75542;SDS011;64129;53.508;10.476;2022-12-11T05:37:47;12.63;;;6.78;;
75542;SDS011;64129;53.508;10.476;2022-12-11T05:40:13;15.23;;;7.32;;
75542;SDS011;64129;53.508;10.476;2022-12-11T05:42:40;11.05;;;6.13;;
75542;SDS011;64129;53.508;10.476;2022-12-11T05:45:06;14.07;;;6.43;;
75542;SDS011;64129;53.508;10.476;2022-12-11T05:47:33;8.60;;;5.60;;
75542;SDS011;64129;53.508;10.476;2022-12-11T05:50:00;11.75;;;5.85;;
75542;SDS011;64129;53.508;10.476;2022-12-11T05:52:26;10.95;;;6.75;;
75542;SDS011;64129;53.508;10.476;2022-12-11T05:54:53;13.07;;;6.38;;
75542;SDS011;64129;53.508;10.476;2022-12-11T05:57:19;11.55;;;5.95;;
75542;SDS011;64129;53.508;10.476;2022-12-11T05:59:45;12.68;;;6.55;;
75542;SDS011;64129;53.508;10.476;2022-12-11T06:02:12;11.73;;;5.85;;
75542;SDS011;64129;53.508;10.476;2022-12-11T06:04:38;10.07;;;5.70;;
75542;SDS011;64129;53.508;10.476;2022-12-11T06:07:05;10.43;;;6.03;;
75542;SDS011;64129;53.508;10.476;2022-12-11T06:09:31;12.90;;;7.10;;
75542;SDS011;64129;53.508;10.476;2022-12-11T06:11:58;11.13;;;6.47;;
75542;SDS011;64129;53.508;10.476;2022-12-11T06:14:24;11.60;;;6.00;;
75542;SDS011;64129;53.508;10.476;2022-12-11T06:16:51;12.32;;;6.28;;
75542;SDS011;64129;53.508;10.476;2022-12-11T06:19:18;12.02;;;6.18;;
75542;SDS011;64129;53.508;10.476;2022-12-11T06:21:44;12.43;;;6.72;;
75542;SDS011;64129;53.508;10.476;2022-12-11T06:24:11;14.15;;;8.10;;
75542;SDS011;64129;53.508;10.476;2022-12-11T06:26:38;13.57;;;6.70;;
75542;SDS011;64129;53.508;10.476;2022-12-11T06:29:04;12.93;;;7.40;;
75542;SDS011;64129;53.508;10.476;2022-12-11T06:31:34;14.40;;;6.43;;
75542;SDS011;64129;53.508;10.476;2022-12-11T06:34:00;14.90;;;7.35;;
75542;SDS011;64129;53.508;10.476;2022-12-11T06:36:27;17.83;;;6.93;;
75542;SDS011;64129;53.508;10.476;2022-12-11T06:38:53;14.32;;;7.25;;
75542;SDS011;64129;53.508;10.476;2022-12-11T06:41:20;12.68;;;7.20;;
75542;SDS011;64129;53.508;10.476;2022-12-11T06:43:47;15.43;;;8.05;;
75542;SDS011;64129;53.508;10.476;2022-12-11T06:46:15;12.50;;;7.60;;
75542;SDS011;64129;53.508;10.476;2022-12-11T06:48:43;15.50;;;8.77;;
75542;SDS011;64129;53.508;10.476;2022-12-11T06:51:11;15.23;;;8.48;;
75542;SDS011;64129;53.508;10.476;2022-12-11T06:53:39;14.32;;;7.95;;
75542;SDS011;64129;53.508;10.476;2022-12-11T06:56:07;15.07;;;8.40;;
75542;SDS011;64129;53.508;10.476;2022-12-11T06:58:35;12.95;;;6.90;;
75542;SDS011;64129;53.508;10.476;2022-12-11T07:01:03;11.63;;;6.25;;
75542;SDS011;64129;53.508;10.476;2022-12-11T07:03:30;11.77;;;7.03;;
75542;SDS011;64129;53.508;10.476;2022-12-11T07:06:00;14.65;;;6.65;;
75542;SDS011;64129;53.508;10.476;2022-12-11T07:08:28;13.75;;;6.68;;
75542;SDS011;64129;53.508;10.476;2022-12-11T07:11:00;11.60;;;6.68;;
75542;SDS011;64129;53.508;10.476;2022-12-11T07:13:28;11.23;;;6.88;;
75542;SDS011;64129;53.508;10.476;2022-12-11T07:15:56;11.25;;;6.13;;
75542;SDS011;64129;53.508;10.476;2022-12-11T07:18:23;12.13;;;7.38;;
75542;SDS011;64129;53.508;10.476;2022-12-11T07:20:49;17.08;;;8.30;;
75542;SDS011;64129;53.508;10.476;2022-12-11T07:23:16;11.15;;;6.35;;
75542;SDS011;64129;53.508;10.476;2022-12-11T07:25:42;14.02;;;6.57;;
75542;SDS011;64129;53.508;10.476;2022-12-11T07:28:09;13.18;;;6.32;;
75542;SDS011;64129;53.508;10.476;2022-12-11T07:30:38;16.17;;;8.18;;
75542;SDS011;64129;53.508;10.476;2022-12-11T07:33:05;16.02;;;7.78;;
75542;SDS011;64129;53.508;10.476;2022-12-11T07:35:33;12.40;;;6.28;;
75542;SDS011;64129;53.508;10.476;2022-12-11T07:38:00;11.00;;;6.10;;
75542;SDS011;64129;53.508;10.476;2022-12-11T07:40:27;11.75;;;5.70;;
75542;SDS011;64129;53.508;10.476;2022-12-11T07:42:53;11.18;;;5.75;;
75542;SDS011;64129;53.508;10.476;2022-12-11T07:45:20;14.23;;;7.00;;
75542;SDS011;64129;53.508;10.476;2022-12-11T07:47:46;13.90;;;5.85;;
75542;SDS011;64129;53.508;10.476;2022-12-11T07:50:12;11.80;;;6.00;;
75542;SDS011;64129;53.508;10.476;2022-12-11T07:52:39;13.98;;;7.32;;
75542;SDS011;64129;53.508;10.476;2022-12-11T07:55:05;13.57;;;6.93;;
75542;SDS011;64129;53.508;10.476;2022-12-11T07:57:32;15.75;;;7.60;;
75542;SDS011;64129;53.508;10.476;2022-12-11T08:00:00;14.10;;;7.43;;
75542;SDS011;64129;53.508;10.476;2022-12-11T08:02:26;12.25;;;6.32;;
75542;SDS011;64129;53.508;10.476;2022-12-11T08:04:54;13.98;;;6.97;;
75542;SDS011;64129;53.508;10.476;2022-12-11T08:07:20;14.63;;;7.80;;
75542;SDS011;64129;53.508;10.476;2022-12-11T08:09:47;13.80;;;6.75;;
75542;SDS011;64129;53.508;10.476;2022-12-11T08:12:13;13.15;;;6.90;;
75542;SDS011;64129;53.508;10.476;2022-12-11T08:14:40;13.40;;;7.53;;
75542;SDS011;64129;53.508;10.476;2022-12-11T08:17:06;13.65;;;7.63;;
75542;SDS011;64129;53.508;10.476;2022-12-11T08:19:33;12.77;;;7.30;;
75542;SDS011;64129;53.508;10.476;2022-12-11T08:21:59;14.35;;;7.22;;
75542;SDS011;64129;53.508;10.476;2022-12-11T08:24:26;14.55;;;7.03;;
75542;SDS011;64129;53.508;10.476;2022-12-11T08:26:53;12.82;;;6.60;;
75542;SDS011;64129;53.508;10.476;2022-12-11T08:29:19;21.02;;;9.63;;
75542;SDS011;64129;53.508;10.476;2022-12-11T08:31:46;17.13;;;8.60;;
75542;SDS011;64129;53.508;10.476;2022-12-11T08:34:12;16.27;;;8.98;;
75542;SDS011;64129;53.508;10.476;2022-12-11T08:36:39;14.60;;;8.50;;
75542;SDS011;64129;53.508;10.476;2022-12-11T08:39:06;18.60;;;8.90;;
75542;SDS011;64129;53.508;10.476;2022-12-11T08:41:32;14.00;;;7.45;;
75542;SDS011;64129;53.508;10.476;2022-12-11T08:43:59;16.08;;;7.60;;
75542;SDS011;64129;53.508;10.476;2022-12-11T08:46:28;15.32;;;7.57;;
75542;SDS011;64129;53.508;10.476;2022-12-11T08:48:57;18.85;;;9.05;;
75542;SDS011;64129;53.508;10.476;2022-12-11T08:51:25;17.77;;;8.95;;
75542;SDS011;64129;53.508;10.476;2022-12-11T08:53:54;15.57;;;8.25;;
75542;SDS011;64129;53.508;10.476;2022-12-11T08:56:24;18.67;;;8.77;;
75542;SDS011;64129;53.508;10.476;2022-12-11T08:58:52;20.67;;;10.77;;
75542;SDS011;64129;53.508;10.476;2022-12-11T09:01:20;18.08;;;10.07;;
75542;SDS011;64129;53.508;10.476;2022-12-11T09:03:49;17.48;;;8.95;;
75542;SDS011;64129;53.508;10.476;2022-12-11T09:06:17;15.27;;;8.80;;
75542;SDS011;64129;53.508;10.476;2022-12-11T09:11:18;14.57;;;7.68;;
75542;SDS011;64129;53.508;10.476;2022-12-11T09:13:52;16.25;;;7.82;;
75542;SDS011;64129;53.508;10.476;2022-12-11T09:16:21;17.80;;;8.98;;
75542;SDS011;64129;53.508;10.476;2022-12-11T09:18:49;14.57;;;8.15;;
75542;SDS011;64129;53.508;10.476;2022-12-11T09:21:18;15.93;;;9.13;;
75542;SDS011;64129;53.508;10.476;2022-12-11T09:23:46;14.57;;;8.80;;
75542;SDS011;64129;53.508;10.476;2022-12-11T09:26:15;17.67;;;8.40;;
75542;SDS011;64129;53.508;10.476;2022-12-11T09:28:43;18.13;;;9.57;;
75542;SDS011;64129;53.508;10.476;2022-12-11T09:33:49;14.43;;;7.68;;
75542;SDS011;64129;53.508;10.476;2022-12-11T09:36:19;13.15;;;6.70;;
75542;SDS011;64129;53.508;10.476;2022-12-11T09:38:45;18.30;;;8.18;;
75542;SDS011;64129;53.508;10.476;2022-12-11T09:46:49;16.30;;;7.45;;
75542;SDS011;64129;53.508;10.476;2022-12-11T09:49:22;15.88;;;8.02;;
75542;SDS011;64129;53.508;10.476;2022-12-11T09:52:05;16.25;;;7.47;;
75542;SDS011;64129;53.508;10.476;2022-12-11T09:54:38;20.33;;;8.60;;
75542;SDS011;64129;53.508;10.476;2022-12-11T10:00:13;15.25;;;7.30;;
75542;SDS011;64129;53.508;10.476;2022-12-11T10:05:46;18.67;;;8.45;;
75542;SDS011;64129;53.508;10.476;2022-12-11T10:08:24;14.00;;;6.57;;
75542;SDS011;64129;53.508;10.476;2022-12-11T10:13:46;18.05;;;9.95;;
75542;SDS011;64129;53.508;10.476;2022-12-11T10:16:34;14.93;;;8.73;;
75542;SDS011;64129;53.508;10.476;2022-12-11T10:19:21;19.30;;;8.77;;
75542;SDS011;64129;53.508;10.476;2022-12-11T10:21:52;15.32;;;8.23;;
75542;SDS011;64129;53.508;10.476;2022-12-11T10:24:22;16.10;;;8.32;;
75542;SDS011;64129;53.508;10.476;2022-12-11T10:27:17;15.90;;;8.00;;
75542;SDS011;64129;53.508;10.476;2022-12-11T10:29:54;14.43;;;8.63;;
75542;SDS011;64129;53.508;10.476;2022-12-11T10:32:26;16.45;;;7.38;;
75542;SDS011;64129;53.508;10.476;2022-12-11T10:35:03;14.68;;;7.60;;
75542;SDS011;64129;53.508;10.476;2022-12-11T10:37:31;14.50;;;7.82;;
75542;SDS011;64129;53.508;10.476;2022-12-11T10:39:57;14.38;;;8.40;;
75542;SDS011;64129;53.508;10.476;2022-12-11T10:42:24;15.73;;;9.40;;
75542;SDS011;64129;53.508;10.476;2022-12-11T10:44:54;17.60;;;8.38;;
75542;SDS011;64129;53.508;10.476;2022-12-11T10:47:28;16.55;;;8.45;;
75542;SDS011;64129;53.508;10.476;2022-12-11T10:49:59;13.88;;;7.03;;
75542;SDS011;64129;53.508;10.476;2022-12-11T10:52:28;15.77;;;8.38;;
75542;SDS011;64129;53.508;10.476;2022-12-11T10:55:02;13.90;;;7.93;;
75542;SDS011;64129;53.508;10.476;2022-12-11T10:57:33;17.75;;;9.05;;
75542;SDS011;64129;53.508;10.476;2022-12-11T11:00:03;14.85;;;7.32;;
75542;SDS011;64129;53.508;10.476;2022-12-11T11:02:35;16.30;;;7.28;;
75542;SDS011;64129;53.508;10.476;2022-12-11T11:05:11;15.48;;;8.52;;
75542;SDS011;64129;53.508;10.476;2022-12-11T11:07:40;16.27;;;7.55;;
75542;SDS011;64129;53.508;10.476;2022-12-11T11:12:37;16.10;;;7.60;;
75542;SDS011;64129;53.508;10.476;2022-12-11T11:15:09;20.10;;;9.02;;
75542;SDS011;64129;53.508;10.476;2022-12-11T11:17:47;14.23;;;8.13;;
75542;SDS011;64129;53.508;10.476;2022-12-11T11:20:21;15.85;;;8.30;;
75542;SDS011;64129;53.508;10.476;2022-12-11T11:22:50;15.57;;;8.50;;
75542;SDS011;64129;53.508;10.476;2022-12-11T11:25:19;15.32;;;8.60;;
75542;SDS011;64129;53.508;10.476;2022-12-11T11:27:48;13.48;;;7.38;;
75542;SDS011;64129;53.508;10.476;2022-12-11T11:30:24;15.82;;;8.07;;
75542;SDS011;64129;53.508;10.476;2022-12-11T11:32:53;15.00;;;8.23;;
75542;SDS011;64129;53.508;10.476;2022-12-11T11:35:23;19.10;;;8.52;;
75542;SDS011;64129;53.508;10.476;2022-12-11T11:43:55;14.77;;;7.65;;
75542;SDS011;64129;53.508;10.476;2022-12-11T11:46:34;17.35;;;8.75;;
75542;SDS011;64129;53.508;10.476;2022-12-11T11:51:48;14.23;;;7.28;;
75542;SDS011;64129;53.508;10.476;2022-12-11T11:54:24;13.25;;;7.25;;
75542;SDS011;64129;53.508;10.476;2022-12-11T11:56:56;13.73;;;7.68;;
75542;SDS011;64129;53.508;10.476;2022-12-11T11:59:31;16.20;;;8.80;;
75542;SDS011;64129;53.508;10.476;2022-12-11T12:02:08;14.10;;;6.55;;
75542;SDS011;64129;53.508;10.476;2022-12-11T12:04:40;11.13;;;7.07;;
75542;SDS011;64129;53.508;10.476;2022-12-11T12:07:10;14.65;;;7.13;;
75542;SDS011;64129;53.508;10.476;2022-12-11T12:15:34;15.40;;;7.53;;
75542;SDS011;64129;53.508;10.476;2022-12-11T12:18:11;14.45;;;7.20;;
75542;SDS011;64129;53.508;10.476;2022-12-11T12:26:34;12.38;;;7.40;;
75542;SDS011;64129;53.508;10.476;2022-12-11T12:29:10;14.18;;;7.93;;
75542;SDS011;64129;53.508;10.476;2022-12-11T12:31:50;15.40;;;8.02;;
75542;SDS011;64129;53.508;10.476;2022-12-11T12:40:19;16.98;;;7.90;;
75542;SDS011;64129;53.508;10.476;2022-12-11T12:43:04;15.27;;;6.90;;
75542;SDS011;64129;53.508;10.476;2022-12-11T12:48:07;15.77;;;7.82;;
75542;SDS011;64129;53.508;10.476;2022-12-11T12:50:43;15.80;;;7.20;;
75542;SDS011;64129;53.508;10.476;2022-12-11T12:53:18;14.07;;;7.20;;
75542;SDS011;64129;53.508;10.476;2022-12-11T12:55:49;16.38;;;7.70;;
75542;SDS011;64129;53.508;10.476;2022-12-11T13:01:08;15.18;;;8.18;;
75542;SDS011;64129;53.508;10.476;2022-12-11T13:03:55;18.98;;;8.00;;
75542;SDS011;64129;53.508;10.476;2022-12-11T13:06:27;19.55;;;8.60;;
75542;SDS011;64129;53.508;10.476;2022-12-11T13:09:12;18.75;;;9.82;;
75542;SDS011;64129;53.508;10.476;2022-12-11T13:11:42;16.95;;;10.02;;
75542;SDS011;64129;53.508;10.476;2022-12-11T13:16:41;22.48;;;11.30;;
75542;SDS011;64129;53.508;10.476;2022-12-11T13:24:46;13.70;;;7.72;;
75542;SDS011;64129;53.508;10.476;2022-12-11T13:27:22;20.13;;;12.15;;
75542;SDS011;64129;53.508;10.476;2022-12-11T13:29:51;16.40;;;8.52;;
75542;SDS011;64129;53.508;10.476;2022-12-11T13:32:20;16.13;;;9.43;;
75542;SDS011;64129;53.508;10.476;2022-12-11T13:34:50;14.93;;;8.00;;
75542;SDS011;64129;53.508;10.476;2022-12-11T13:37:25;17.55;;;8.43;;
75542;SDS011;64129;53.508;10.476;2022-12-11T13:39:56;16.25;;;7.75;;
75542;SDS011;64129;53.508;10.476;2022-12-11T13:42:28;14.32;;;8.07;;
75542;SDS011;64129;53.508;10.476;2022-12-11T13:44:59;17.05;;;9.25;;
75542;SDS011;64129;53.508;10.476;2022-12-11T13:50:01;19.45;;;8.88;;
75542;SDS011;64129;53.508;10.476;2022-12-11T13:52:39;16.38;;;8.30;;
75542;SDS011;64129;53.508;10.476;2022-12-11T13:55:15;14.93;;;7.88;;
75542;SDS011;64129;53.508;10.476;2022-12-11T13:57:46;15.52;;;8.85;;
75542;SDS011;64129;53.508;10.476;2022-12-11T14:00:20;16.23;;;8.13;;
75542;SDS011;64129;53.508;10.476;2022-12-11T14:02:50;16.10;;;8.10;;
75542;SDS011;64129;53.508;10.476;2022-12-11T14:05:18;15.38;;;8.40;;
75542;SDS011;64129;53.508;10.476;2022-12-11T14:07:46;12.80;;;7.20;;
75542;SDS011;64129;53.508;10.476;2022-12-11T14:10:15;17.40;;;8.43;;
75542;SDS011;64129;53.508;10.476;2022-12-11T14:12:46;15.52;;;8.23;;
75542;SDS011;64129;53.508;10.476;2022-12-11T14:15:18;15.60;;;8.60;;
75542;SDS011;64129;53.508;10.476;2022-12-11T14:17:45;17.80;;;8.95;;
75542;SDS011;64129;53.508;10.476;2022-12-11T14:20:16;17.10;;;8.88;;
75542;SDS011;64129;53.508;10.476;2022-12-11T14:22:43;17.15;;;9.52;;
75542;SDS011;64129;53.508;10.476;2022-12-11T14:25:24;14.38;;;8.40;;
75542;SDS011;64129;53.508;10.476;2022-12-11T14:27:52;14.95;;;8.15;;
75542;SDS011;64129;53.508;10.476;2022-12-11T14:32:56;16.27;;;7.75;;
75542;SDS011;64129;53.508;10.476;2022-12-11T14:35:26;16.65;;;9.27;;
75542;SDS011;64129;53.508;10.476;2022-12-11T14:37:56;16.67;;;7.70;;
75542;SDS011;64129;53.508;10.476;2022-12-11T14:40:27;14.30;;;7.72;;
75542;SDS011;64129;53.508;10.476;2022-12-11T14:43:01;14.20;;;8.25;;
75542;SDS011;64129;53.508;10.476;2022-12-11T14:45:35;15.23;;;7.88;;
75542;SDS011;64129;53.508;10.476;2022-12-11T14:48:09;14.60;;;7.95;;
75542;SDS011;64129;53.508;10.476;2022-12-11T14:50:48;15.60;;;8.05;;
75542;SDS011;64129;53.508;10.476;2022-12-11T14:55:52;18.15;;;9.80;;
75542;SDS011;64129;53.508;10.476;2022-12-11T14:58:22;16.42;;;9.00;;
75542;SDS011;64129;53.508;10.476;2022-12-11T15:00:56;18.02;;;9.70;;
75542;SDS011;64129;53.508;10.476;2022-12-11T15:03:43;16.38;;;8.63;;
75542;SDS011;64129;53.508;10.476;2022-12-11T15:06:32;16.38;;;7.93;;
75542;SDS011;64129;53.508;10.476;2022-12-11T15:11:50;16.50;;;8.52;;
75542;SDS011;64129;53.508;10.476;2022-12-11T15:14:18;15.30;;;8.90;;
75542;SDS011;64129;53.508;10.476;2022-12-11T15:16:47;17.85;;;8.98;;
75542;SDS011;64129;53.508;10.476;2022-12-11T15:19:19;19.70;;;9.18;;
75542;SDS011;64129;53.508;10.476;2022-12-11T15:22:04;17.67;;;8.27;;
75542;SDS011;64129;53.508;10.476;2022-12-11T15:24:41;15.30;;;8.25;;
75542;SDS011;64129;53.508;10.476;2022-12-11T15:30:01;18.58;;;9.13;;
75542;SDS011;64129;53.508;10.476;2022-12-11T15:32:39;15.75;;;8.65;;
75542;SDS011;64129;53.508;10.476;2022-12-11T15:35:22;18.08;;;8.80;;
75542;SDS011;64129;53.508;10.476;2022-12-11T15:37:51;16.48;;;8.93;;
75542;SDS011;64129;53.508;10.476;2022-12-11T15:40:19;18.17;;;9.85;;
75542;SDS011;64129;53.508;10.476;2022-12-11T15:42:47;15.52;;;7.85;;
75542;SDS011;64129;53.508;10.476;2022-12-11T15:45:15;15.65;;;7.80;;
75542;SDS011;64129;53.508;10.476;2022-12-11T15:47:43;14.85;;;7.93;;
75542;SDS011;64129;53.508;10.476;2022-12-11T15:50:19;18.17;;;8.55;;
75542;SDS011;64129;53.508;10.476;2022-12-11T15:52:53;14.85;;;7.45;;
75542;SDS011;64129;53.508;10.476;2022-12-11T15:55:21;17.70;;;9.07;;
75542;SDS011;64129;53.508;10.476;2022-12-11T15:57:52;23.08;;;10.85;;
75542;SDS011;64129;53.508;10.476;2022-12-11T16:00:20;17.75;;;10.43;;
75542;SDS011;64129;53.508;10.476;2022-12-11T16:02:49;18.27;;;10.23;;
75542;SDS011;64129;53.508;10.476;2022-12-11T16:05:16;21.30;;;10.43;;
75542;SDS011;64129;53.508;10.476;2022-12-11T16:07:43;19.50;;;10.55;;
75542;SDS011;64129;53.508;10.476;2022-12-11T16:10:12;20.45;;;12.68;;
75542;SDS011;64129;53.508;10.476;2022-12-11T16:12:40;18.75;;;10.23;;